Pagrindinis puslapis
METAR-TAF:

METAR-TAF

Oro uostai :

Al Maktumo tarptautinis oro uostas

Dubajus, Jungtiniai Arabų Emyratai

platuma: 24-53-49N, ilguma: 55-09-40E, Aukštis: 35 m

Dabartinis oras

Ataskaita buvo paskelbta 55 minutes, ne 07:00 UTC
Vėjas 7 kt iš Pietvakarių, svyruoja nuo Pietų ir Vakarų/Šiaurės Vakarų
Temperatūra 22°C
Drėgmė 46%
Slėgis 1019 hPa
Matomumas 10 km arba daugiau
Mažai debesys ne aukštis 4500 ft

METAR: OMDW 210700Z 23007KT 190V290 9999 FEW045 22/10 Q1019 NOSIG

Laikas: 11:55 (07:55 UTC)

Prognozė

Ataskaita buvo paskelbta 3 valandos ir 1 minutes, ne 04:54 UTC
Prognozė galioja nuo 21 metu 06 UTC su 22 metu 12 UTC
Vėjas 5 kt iš Pietvakarių
Matomumas: 8000 m
Mažai debesys ne aukštis 4000 ft
Tapsmas
nuo 21 metu 06 UTC su 21 metu 08 UTC
Vėjas 10 kt iš Vakarų/Šiaurės Vakarų
Tapsmas
nuo 21 metu 15 UTC su 21 metu 17 UTC
Vėjas 5 kt iš Pietų
Tapsmas
nuo 22 metu 05 UTC su 22 metu 07 UTC
Vėjas 10 kt iš Rytų/Pietryčių

TAF: OMDW 210454Z 2106/2212 22005KT 8000 FEW040 BECMG 2106/2108 30010KT BECMG 2115/2117 17005KT BECMG 2205/2207 11010KT

Orai ataskaitas ir orų prognozės (METAR, TAF).

turimą stotys yra geltonos ir raudonos taškus žemėlapyje.

Perkelti pele per norėdami pamatyti stoties vardą.

Tada spustelėkite, norėdami matyti oro stebėjimo ir prognozės.

Norėdami pakeisti žemėlapį: spustelėkite ant žalios mygtukų su juodo kryžiaus žemyn,; žalią mygtuką su brūkšneliu, jei norite nutolinti; arba žalių rodyklių gretimoms žemėlapius.


METAR-TAF: